Time;durP1;ratioP1;P1;durP2;ratioP2;P2;SDS_P1;SDS_P2;PMS_P1;PMS_P2;Temp;Humidity;BMP_temperature;BMP_pressure;BME280_temperature;BME280_humidity;BME280_pressure;Samples;Min_cycle;Max_cycle;Signal;HPM_P1;HPM_P2
2023/11/04 00:00:27;;;;;;;1.62;0.52;;;11.80;71.90;;;;;;2208824;59;20930;-66
2023/11/04 00:02:54;;;;;;;1.90;0.50;;;11.80;71.90;;;;;;2201964;57;20970;-67
2023/11/04 00:05:22;;;;;;;1.12;0.40;;;11.80;71.90;;;;;;2426010;57;20970;-66
2023/11/04 00:07:48;;;;;;;1.05;0.40;;;11.80;71.90;;;;;;2208785;58;20950;-66
2023/11/04 00:10:14;;;;;;;1.80;0.62;;;11.80;72.50;;;;;;2209081;58;20978;-66
2023/11/04 00:12:46;;;;;;;1.02;0.40;;;12.00;72.00;;;;;;2208818;57;20958;-67
2023/11/04 00:15:12;;;;;;;2.83;0.40;;;11.90;71.60;;;;;;2205396;57;21041;-66
2023/11/04 00:17:38;;;;;;;0.62;0.30;;;11.90;71.80;;;;;;2208073;57;20969;-65
2023/11/04 00:20:09;;;;;;;3.65;0.60;;;11.90;71.80;;;;;;2211000;57;21813;-66
2023/11/04 00:22:36;;;;;;;2.87;0.50;;;12.00;71.90;;;;;;2208805;57;21419;-66
2023/11/04 00:25:03;;;;;;;1.80;0.50;;;12.00;71.90;;;;;;2212144;57;21427;-66
2023/11/04 00:27:30;;;;;;;2.08;0.68;;;12.00;71.90;;;;;;2200198;57;21782;-66
2023/11/04 00:29:56;;;;;;;0.73;0.30;;;12.10;71.90;;;;;;2426323;57;21849;-66
2023/11/04 00:32:23;;;;;;;1.08;0.50;;;12.10;71.90;;;;;;2208590;58;21396;-66
2023/11/04 00:34:50;;;;;;;1.92;0.50;;;12.00;71.70;;;;;;2425791;57;21333;-66
2023/11/04 00:37:16;;;;;;;0.85;0.40;;;12.10;71.80;;;;;;2426336;57;21117;-66
2023/11/04 00:39:44;;;;;;;1.10;0.50;;;12.10;71.80;;;;;;2208896;59;21013;-66
2023/11/04 00:42:10;;;;;;;2.17;0.60;;;12.20;71.90;;;;;;2208326;59;21022;-67
2023/11/04 00:44:36;;;;;;;1.25;0.45;;;12.20;71.80;;;;;;2208203;58;21058;-66
2023/11/04 00:47:03;;;;;;;1.42;0.50;;;12.20;71.80;;;;;;2426144;57;21002;-66
2023/11/04 00:49:29;;;;;;;1.30;0.40;;;12.20;71.80;;;;;;2426041;57;21487;-66
2023/11/04 00:51:55;;;;;;;1.42;0.30;;;12.20;71.80;;;;;;2208218;58;20954;-66
2023/11/04 00:54:23;;;;;;;1.40;0.80;;;12.20;71.70;;;;;;2208710;57;20992;-67
2023/11/04 00:56:52;;;;;;;1.10;0.40;;;12.20;71.70;;;;;;2418664;56;20989;-66
2023/11/04 00:59:18;;;;;;;1.08;0.40;;;12.30;71.70;;;;;;2421844;56;21049;-66
2023/11/04 01:01:44;;;;;;;1.00;0.30;;;12.30;71.70;;;;;;2203415;57;20970;-66
2023/11/04 01:04:11;;;;;;;1.62;0.50;;;12.30;71.70;;;;;;2208726;57;21037;-67
2023/11/04 01:06:37;;;;;;;2.17;0.47;;;12.30;71.60;;;;;;2208011;57;21006;-67
2023/11/04 01:09:04;;;;;;;2.03;0.50;;;12.30;71.60;;;;;;2417039;56;21499;-66
2023/11/04 01:11:30;;;;;;;1.50;0.57;;;12.30;71.50;;;;;;2426542;57;20978;-67
2023/11/04 01:13:58;;;;;;;0.90;0.40;;;12.30;71.50;;;;;;2205186;57;20983;-66
2023/11/04 01:16:24;;;;;;;0.88;0.32;;;12.40;71.60;;;;;;2426223;56;20987;-66
2023/11/04 01:18:50;;;;;;;0.98;0.45;;;12.40;71.60;;;;;;2426323;57;20950;-67
2023/11/04 01:21:17;;;;;;;0.85;0.35;;;12.40;71.50;;;;;;2209268;58;21780;-67
2023/11/04 01:23:43;;;;;;;1.65;0.60;;;12.40;71.60;;;;;;2209898;57;20986;-66
2023/11/04 01:26:10;;;;;;;2.22;0.70;;;12.40;71.60;;;;;;2207654;57;20973;-66
2023/11/04 01:28:36;;;;;;;0.73;0.37;;;12.40;71.50;;;;;;2425715;57;21022;-66
2023/11/04 01:31:03;;;;;;;1.45;0.55;;;12.40;71.40;;;;;;2425970;57;20997;-66
2023/11/04 01:33:29;;;;;;;1.83;0.68;;;12.40;71.40;;;;;;2208734;59;21006;-66
2023/11/04 01:35:56;;;;;;;4.10;0.70;;;12.40;71.40;;;;;;2208746;58;21382;-67
2023/11/04 01:38:22;;;;;;;1.08;0.40;;;12.40;71.40;;;;;;2426006;57;20954;-66
2023/11/04 01:40:49;;;;;;;1.17;0.30;;;12.50;71.50;;;;;;2425878;57;21868;-66
2023/11/04 01:43:29;;;;;;;1.77;0.52;;;12.50;71.50;;;;;;2209118;58;21029;-66
2023/11/04 01:46:29;;;;;;;1.77;0.60;;;12.50;71.00;;;;;;2187652;58;1337157;-66
2023/11/04 01:48:55;;;;;;;1.12;0.37;;;12.50;70.40;;;;;;2208011;58;21079;-67
2023/11/04 01:51:21;;;;;;;1.33;0.43;;;12.50;71.40;;;;;;2205991;59;21642;-67
2023/11/04 01:53:52;;;;;;;3.20;0.60;;;12.50;71.30;;;;;;2208212;58;21034;-66
2023/11/04 01:56:24;;;;;;;1.05;0.40;;;12.50;71.20;;;;;;2425912;57;21422;-67
2023/11/04 01:58:54;;;;;;;1.02;0.35;;;12.50;71.20;;;;;;2425935;57;21018;-65
2023/11/04 02:01:20;;;;;;;3.00;0.60;;;12.50;71.20;;;;;;2208054;58;20977;-66
2023/11/04 02:03:47;;;;;;;1.12;0.40;;;12.50;71.20;;;;;;2208599;58;21551;-67
2023/11/04 02:06:14;;;;;;;1.27;0.50;;;12.50;71.20;;;;;;2425245;57;21023;-66
2023/11/04 02:08:42;;;;;;;1.23;0.40;;;12.50;71.20;;;;;;2208703;58;20961;-67
2023/11/04 02:11:08;;;;;;;1.75;0.70;;;12.50;71.20;;;;;;2208317;58;21058;-66
2023/11/04 02:13:34;;;;;;;1.00;0.50;;;12.50;71.10;;;;;;2426356;57;21518;-66
2023/11/04 02:16:01;;;;;;;2.30;0.80;;;12.50;71.80;;;;;;2425885;57;21037;-67
2023/11/04 02:18:27;;;;;;;2.47;0.52;;;12.50;71.10;;;;;;2208752;59;21010;-67
2023/11/04 02:20:57;;;;;;;1.35;0.50;;;12.50;71.10;;;;;;2206158;57;21447;-65
2023/11/04 02:23:26;;;;;;;1.92;0.52;;;12.50;70.90;;;;;;2203806;57;20990;-67
2023/11/04 02:25:53;;;;;;;0.98;0.43;;;12.50;71.10;;;;;;2203618;57;21069;-64
2023/11/04 02:28:23;;;;;;;1.02;0.40;;;12.50;71.00;;;;;;2208122;57;20989;-66
2023/11/04 02:30:50;;;;;;;2.15;0.50;;;12.50;71.00;;;;;;2208319;58;20970;-64
2023/11/04 02:33:19;;;;;;;1.25;0.50;;;12.50;71.00;;;;;;2207607;58;21773;-64
2023/11/04 02:35:49;;;;;;;1.35;0.40;;;12.50;71.00;;;;;;2208382;57;20982;-64
2023/11/04 02:38:16;;;;;;;1.60;0.40;;;12.50;70.90;;;;;;2421615;56;21010;-63
2023/11/04 02:40:43;;;;;;;1.23;0.45;;;12.50;70.90;;;;;;2418753;56;21021;-65
2023/11/04 02:43:09;;;;;;;2.87;0.50;;;12.50;70.90;;;;;;2415625;56;21793;-64
2023/11/04 02:45:36;;;;;;;0.90;0.50;;;12.50;70.90;;;;;;2208563;58;20970;-64
2023/11/04 02:48:02;;;;;;;1.20;0.40;;;12.50;70.90;;;;;;2208701;59;20958;-64
2023/11/04 02:50:30;;;;;;;1.33;0.47;;;12.50;70.90;;;;;;2425736;57;21033;-66
2023/11/04 02:52:56;;;;;;;1.52;0.40;;;12.50;71.00;;;;;;2425784;57;21471;-64
2023/11/04 02:55:22;;;;;;;1.85;0.62;;;12.50;71.00;;;;;;2425151;57;20978;-64
2023/11/04 02:57:51;;;;;;;1.00;0.40;;;12.50;70.90;;;;;;2208508;59;21017;-65
2023/11/04 03:00:18;;;;;;;1.15;0.47;;;12.50;71.00;;;;;;2425560;57;21058;-64
2023/11/04 03:02:46;;;;;;;1.70;0.40;;;12.50;70.90;;;;;;2425982;57;20981;-66
2023/11/04 03:05:13;;;;;;;0.95;0.40;;;12.40;70.80;;;;;;2211123;57;21054;-64
2023/11/04 03:07:43;;;;;;;1.02;0.40;;;12.40;70.80;;;;;;2202946;57;20966;-65
2023/11/04 03:10:10;;;;;;;0.73;0.32;;;12.40;70.80;;;;;;2208582;57;20982;-64
2023/11/04 03:12:38;;;;;;;3.80;0.50;;;12.40;70.80;;;;;;2209412;58;20991;-64
2023/11/04 03:15:05;;;;;;;1.08;0.40;;;12.40;70.80;;;;;;2426448;57;21036;-64
2023/11/04 03:17:31;;;;;;;0.80;0.30;;;12.40;70.80;;;;;;2208846;58;20985;-64
2023/11/04 03:19:58;;;;;;;0.60;0.32;;;12.40;70.80;;;;;;2426929;57;21074;-64
2023/11/04 03:22:24;;;;;;;0.85;0.40;;;12.40;70.90;;;;;;2425520;56;20986;-64
2023/11/04 03:24:53;;;;;;;1.52;0.50;;;12.40;70.90;;;;;;2206484;57;20968;-64
2023/11/04 03:27:21;;;;;;;1.35;0.50;;;12.40;70.80;;;;;;2415239;55;21001;-64
2023/11/04 03:29:48;;;;;;;2.42;0.40;;;12.40;70.80;;;;;;2424794;56;21002;-64
2023/11/04 03:32:15;;;;;;;1.00;0.40;;;12.50;70.90;;;;;;2414685;56;20976;-66
2023/11/04 03:34:42;;;;;;;0.90;0.40;;;12.50;70.90;;;;;;2426501;57;21775;-64
2023/11/04 03:37:09;;;;;;;1.02;0.30;;;12.40;70.90;;;;;;2426289;57;21060;-65
2023/11/04 03:39:35;;;;;;;0.80;0.32;;;12.50;71.00;;;;;;2426130;57;21767;-67
2023/11/04 03:42:02;;;;;;;0.70;0.30;;;12.40;70.90;;;;;;2421820;56;21026;-66
2023/11/04 03:44:29;;;;;;;0.68;0.37;;;12.40;70.90;;;;;;2202043;57;21048;-66
2023/11/04 03:46:55;;;;;;;1.80;0.30;;;12.40;71.00;;;;;;2201521;57;20969;-67
2023/11/04 03:49:23;;;;;;;1.20;0.40;;;12.50;71.00;;;;;;2424609;57;20989;-65
2023/11/04 03:51:51;;;;;;;1.17;0.30;;;12.40;70.90;;;;;;2202323;57;21049;-65
2023/11/04 03:54:17;;;;;;;0.98;0.37;;;12.40;70.90;;;;;;2209872;59;21698;-65
2023/11/04 03:56:44;;;;;;;1.20;0.47;;;12.40;70.90;;;;;;2415796;56;21033;-65
2023/11/04 03:59:12;;;;;;;1.80;0.50;;;12.50;70.80;;;;;;2423785;56;21050;-63
2023/11/04 04:01:39;;;;;;;3.30;0.40;;;12.40;70.70;;;;;;2418162;56;20970;-64
2023/11/04 04:04:06;;;;;;;0.80;0.30;;;12.40;70.60;;;;;;2425602;57;21045;-66
2023/11/04 04:06:33;;;;;;;0.62;0.30;;;12.50;70.70;;;;;;2207773;57;21467;-66
2023/11/04 04:08:59;;;;;;;0.70;0.40;;;12.40;70.50;;;;;;2207534;57;21005;-65
2023/11/04 04:11:26;;;;;;;0.88;0.30;;;12.40;70.50;;;;;;2426511;56;20938;-64
2023/11/04 04:13:52;;;;;;;0.77;0.30;;;12.40;70.50;;;;;;2208622;59;21046;-64
2023/11/04 04:16:18;;;;;;;1.02;0.40;;;12.40;70.50;;;;;;2416540;56;20994;-64
2023/11/04 04:18:45;;;;;;;1.45;0.37;;;12.30;70.40;;;;;;2424911;57;21036;-67
2023/11/04 04:21:15;;;;;;;2.05;0.40;;;12.30;70.40;;;;;;2208326;58;21006;-66
2023/11/04 04:23:43;;;;;;;0.95;0.40;;;12.30;70.20;;;;;;2426629;56;21006;-67
2023/11/04 04:26:09;;;;;;;1.37;0.30;;;12.30;70.50;;;;;;2208577;57;21062;-66
2023/11/04 04:28:35;;;;;;;1.75;0.40;;;12.30;70.50;;;;;;2208366;57;21061;-66
2023/11/04 04:31:04;;;;;;;1.40;0.40;;;12.30;70.50;;;;;;2426671;57;21154;-64
2023/11/04 04:33:31;;;;;;;0.57;0.30;;;12.30;70.50;;;;;;2418020;56;20963;-64
2023/11/04 04:35:57;;;;;;;0.77;0.30;;;12.10;70.40;;;;;;2422771;56;20982;-64
2023/11/04 04:38:24;;;;;;;1.23;0.20;;;12.20;70.50;;;;;;2426041;57;21936;-64
2023/11/04 04:40:50;;;;;;;0.52;0.30;;;12.20;70.60;;;;;;2424175;57;21522;-66
2023/11/04 04:43:16;;;;;;;0.75;0.30;;;12.20;70.50;;;;;;2207899;58;20969;-65
2023/11/04 04:45:43;;;;;;;0.70;0.30;;;12.20;70.60;;;;;;2208523;57;21042;-65
2023/11/04 04:48:09;;;;;;;1.48;0.50;;;12.20;70.70;;;;;;2205081;57;21018;-64
2023/11/04 04:50:36;;;;;;;2.70;0.40;;;12.20;70.70;;;;;;2419302;56;20986;-64
2023/11/04 04:53:02;;;;;;;0.40;0.20;;;12.20;71.50;;;;;;2422646;56;20987;-64
2023/11/04 04:55:30;;;;;;;0.60;0.20;;;12.20;70.90;;;;;;2418632;56;20966;-64
2023/11/04 04:57:56;;;;;;;1.12;0.30;;;12.20;70.90;;;;;;2426383;57;20983;-64
2023/11/04 05:00:23;;;;;;;0.98;0.30;;;12.20;70.90;;;;;;2207893;59;21053;-63
2023/11/04 05:02:49;;;;;;;0.70;0.22;;;12.20;71.00;;;;;;2426041;57;20970;-64
2023/11/04 05:05:17;;;;;;;0.77;0.22;;;12.30;71.10;;;;;;2426049;57;20973;-66
2023/11/04 05:07:44;;;;;;;1.17;0.43;;;12.30;71.10;;;;;;2418705;56;21035;-66
2023/11/04 05:10:11;;;;;;;1.15;0.30;;;12.30;71.10;;;;;;2414970;56;21042;-66
2023/11/04 05:12:37;;;;;;;0.57;0.30;;;12.30;71.10;;;;;;2205978;57;21848;-67
2023/11/04 05:15:04;;;;;;;3.45;0.43;;;12.30;71.10;;;;;;2208706;58;20978;-65
2023/11/04 05:17:30;;;;;;;0.50;0.22;;;12.30;71.10;;;;;;2425725;57;21017;-63
2023/11/04 05:19:56;;;;;;;1.08;0.40;;;12.30;71.10;;;;;;2426675;57;20946;-63
2023/11/04 05:22:25;;;;;;;0.85;0.30;;;12.40;71.20;;;;;;2207824;58;21049;-64
2023/11/04 05:24:52;;;;;;;1.65;0.52;;;12.40;71.90;;;;;;2208640;58;20958;-64
2023/11/04 05:27:19;;;;;;;0.98;0.30;;;12.40;71.10;;;;;;2207878;57;22030;-66
2023/11/04 05:29:45;;;;;;;2.37;0.30;;;12.40;71.10;;;;;;2208242;58;21031;-64
2023/11/04 05:32:13;;;;;;;0.80;0.30;;;12.40;71.00;;;;;;2425593;57;20946;-66
2023/11/04 05:34:39;;;;;;;2.55;0.30;;;12.40;70.90;;;;;;2425325;56;21869;-66
2023/11/04 05:37:07;;;;;;;1.27;0.30;;;12.40;70.90;;;;;;2209340;59;21051;-65
2023/11/04 05:39:35;;;;;;;1.12;0.30;;;12.40;70.80;;;;;;2414808;56;21080;-67
2023/11/04 05:42:05;;;;;;;1.25;0.30;;;12.40;70.80;;;;;;2425116;57;21054;-64
2023/11/04 05:44:31;;;;;;;0.93;0.20;;;12.50;70.80;;;;;;2424474;57;20981;-64
2023/11/04 05:46:58;;;;;;;1.02;0.30;;;12.50;70.80;;;;;;2208250;57;20969;-66
2023/11/04 05:49:25;;;;;;;1.50;0.40;;;12.50;70.80;;;;;;2424464;56;20958;-66
2023/11/04 05:51:51;;;;;;;0.68;0.30;;;12.50;70.70;;;;;;2426051;57;21034;-64
2023/11/04 05:54:17;;;;;;;0.73;0.35;;;12.50;70.70;;;;;;2425799;56;20946;-64
2023/11/04 05:56:43;;;;;;;0.60;0.30;;;12.50;70.60;;;;;;2425598;57;21013;-64
2023/11/04 05:59:10;;;;;;;1.52;0.50;;;12.50;70.70;;;;;;2208977;57;20981;-64
2023/11/04 06:01:36;;;;;;;1.20;0.40;;;12.50;70.70;;;;;;2425607;57;22188;-63
2023/11/04 06:04:03;;;;;;;1.58;0.50;;;12.50;70.60;;;;;;2426103;57;20990;-63
2023/11/04 06:06:32;;;;;;;1.90;0.52;;;12.50;70.60;;;;;;2424514;56;21034;-66
2023/11/04 06:08:58;;;;;;;2.05;0.65;;;12.50;70.60;;;;;;2426522;57;21057;-65
2023/11/04 06:11:25;;;;;;;2.10;0.85;;;12.50;70.50;;;;;;2208128;59;20982;-64
2023/11/04 06:13:53;;;;;;;1.95;0.70;;;12.50;70.50;;;;;;2210895;57;21918;-67
2023/11/04 06:16:19;;;;;;;1.17;0.50;;;12.50;70.50;;;;;;2417137;56;21024;-64
2023/11/04 06:18:46;;;;;;;1.05;0.50;;;12.50;70.40;;;;;;2426589;57;21073;-64
2023/11/04 06:21:16;;;;;;;0.98;0.40;;;12.40;70.30;;;;;;2414678;56;21064;-64
2023/11/04 06:23:43;;;;;;;1.42;0.50;;;12.40;70.20;;;;;;2204481;57;21034;-64
2023/11/04 06:26:11;;;;;;;0.90;0.30;;;12.40;70.40;;;;;;2206406;57;21089;-64
2023/11/04 06:28:41;;;;;;;0.95;0.30;;;12.40;70.30;;;;;;2421860;56;21846;-66
2023/11/04 06:31:10;;;;;;;0.70;0.28;;;12.40;70.30;;;;;;2426344;57;20982;-68
2023/11/04 06:33:36;;;;;;;1.30;0.40;;;12.40;70.10;;;;;;2209304;57;21763;-66
2023/11/04 06:36:03;;;;;;;1.30;0.30;;;12.40;70.30;;;;;;2426860;56;21049;-66
2023/11/04 06:38:30;;;;;;;0.43;0.30;;;12.40;70.40;;;;;;2209390;57;20982;-65
2023/11/04 06:40:56;;;;;;;0.20;0.20;;;12.40;70.40;;;;;;2426406;56;20969;-64
2023/11/04 06:43:23;;;;;;;1.00;0.22;;;12.40;70.30;;;;;;2208746;57;20989;-65
2023/11/04 06:45:49;;;;;;;1.20;0.30;;;12.40;70.40;;;;;;2425919;57;21051;-64
2023/11/04 06:48:15;;;;;;;0.82;0.40;;;12.40;70.40;;;;;;2425922;57;20986;-65
2023/11/04 06:50:42;;;;;;;0.47;0.20;;;12.50;70.50;;;;;;2208293;59;21298;-64
2023/11/04 06:53:08;;;;;;;0.98;0.37;;;12.40;70.30;;;;;;2209015;58;20985;-64
2023/11/04 06:55:35;;;;;;;1.05;0.25;;;12.50;70.50;;;;;;2207348;56;21010;-64
2023/11/04 06:58:02;;;;;;;0.55;0.28;;;12.50;70.50;;;;;;2204663;57;21010;-64
2023/11/04 07:00:28;;;;;;;1.80;0.30;;;12.50;70.50;;;;;;2208081;59;20991;-63
2023/11/04 07:02:55;;;;;;;0.60;0.25;;;12.50;70.50;;;;;;2208587;57;21342;-64
2023/11/04 07:05:23;;;;;;;1.25;0.37;;;12.50;70.50;;;;;;2208723;58;21030;-64
2023/11/04 07:07:50;;;;;;;1.48;0.30;;;12.50;70.40;;;;;;2208503;58;21000;-64
2023/11/04 07:10:18;;;;;;;0.95;0.30;;;12.50;70.50;;;;;;2209095;57;22327;-65
2023/11/04 07:12:44;;;;;;;1.48;0.30;;;12.50;70.50;;;;;;2208222;59;21014;-64
2023/11/04 07:15:11;;;;;;;0.30;0.20;;;12.50;71.20;;;;;;2426357;57;21435;-64
2023/11/04 07:17:37;;;;;;;0.32;0.20;;;12.50;70.60;;;;;;2208188;59;21693;-64
2023/11/04 07:20:06;;;;;;;1.55;0.40;;;12.50;70.60;;;;;;2208642;59;21025;-64
2023/11/04 07:22:34;;;;;;;0.30;0.15;;;12.60;70.70;;;;;;2425287;56;21073;-66
2023/11/04 07:25:00;;;;;;;0.80;0.40;;;12.60;70.80;;;;;;2426067;57;20990;-67
2023/11/04 07:27:26;;;;;;;0.88;0.30;;;12.60;70.80;;;;;;2425012;56;21080;-65
2023/11/04 07:29:54;;;;;;;1.85;0.32;;;12.60;70.80;;;;;;2426030;56;21017;-64
2023/11/04 07:32:20;;;;;;;0.93;0.30;;;12.60;70.80;;;;;;2426324;56;21038;-65
2023/11/04 07:34:47;;;;;;;1.02;0.35;;;12.70;70.90;;;;;;2425860;57;21061;-64
2023/11/04 07:37:15;;;;;;;1.77;0.35;;;12.70;70.90;;;;;;2210296;59;21013;-65
2023/11/04 07:39:42;;;;;;;1.25;0.40;;;12.70;70.80;;;;;;2411873;56;21000;-64
2023/11/04 07:42:08;;;;;;;1.87;0.68;;;12.70;70.90;;;;;;2419562;56;21020;-64
2023/11/04 07:44:34;;;;;;;2.28;0.40;;;12.80;70.90;;;;;;2424311;56;21021;-65
2023/11/04 07:47:01;;;;;;;2.47;0.75;;;12.80;70.90;;;;;;2426662;57;20974;-66
2023/11/04 07:49:27;;;;;;;3.37;1.45;;;12.80;71.00;;;;;;2425294;57;21042;-66
2023/11/04 07:51:54;;;;;;;4.35;2.20;;;12.90;71.00;;;;;;2208393;57;21018;-64
2023/11/04 07:54:21;;;;;;;4.68;2.55;;;12.90;71.00;;;;;;2425425;56;20986;-65
2023/11/04 07:56:47;;;;;;;3.95;1.95;;;12.90;71.00;;;;;;2208328;59;21015;-64
2023/11/04 07:59:14;;;;;;;3.22;1.65;;;13.00;71.10;;;;;;2208314;57;21046;-64
2023/11/04 08:01:40;;;;;;;3.60;1.90;;;13.00;71.00;;;;;;2207556;58;21070;-65
2023/11/04 08:04:06;;;;;;;2.45;1.27;;;13.00;70.90;;;;;;2426376;57;21001;-64
2023/11/04 08:06:33;;;;;;;2.00;0.80;;;13.10;71.00;;;;;;2207976;57;21082;-65
2023/11/04 08:08:59;;;;;;;2.10;0.80;;;13.10;71.00;;;;;;2208778;57;20981;-65
2023/11/04 08:11:27;;;;;;;1.55;0.70;;;13.10;70.90;;;;;;2208375;58;21606;-64
2023/11/04 08:13:56;;;;;;;1.92;0.68;;;13.20;71.00;;;;;;2208360;58;21056;-64
2023/11/04 08:16:22;;;;;;;1.17;0.60;;;13.30;71.20;;;;;;2426066;56;21159;-65
2023/11/04 08:18:51;;;;;;;0.88;0.40;;;13.20;71.00;;;;;;2418911;56;21512;-65
2023/11/04 08:21:22;;;;;;;2.00;0.50;;;13.30;71.10;;;;;;2422248;57;20982;-64
2023/11/04 08:23:49;;;;;;;1.08;0.40;;;13.30;71.00;;;;;;2425666;57;21022;-64
2023/11/04 08:26:15;;;;;;;0.90;0.32;;;13.30;71.00;;;;;;2208358;59;20989;-64
2023/11/04 08:28:41;;;;;;;0.77;0.37;;;13.40;71.10;;;;;;2425456;57;21027;-65
2023/11/04 08:31:08;;;;;;;2.12;0.30;;;13.40;71.00;;;;;;2426201;57;21419;-65
2023/11/04 08:33:34;;;;;;;2.03;0.50;;;13.50;71.00;;;;;;2425064;57;20965;-65
2023/11/04 08:36:01;;;;;;;4.30;2.22;;;13.50;71.00;;;;;;2208483;58;20976;-65
2023/11/04 08:38:27;;;;;;;4.10;2.22;;;13.50;71.00;;;;;;2207759;58;21001;-64
2023/11/04 08:40:54;;;;;;;3.40;1.50;;;13.50;71.00;;;;;;2209497;58;21037;-64
2023/11/04 08:43:20;;;;;;;2.15;0.95;;;13.60;71.20;;;;;;2415742;56;21895;-64
2023/11/04 08:45:47;;;;;;;2.62;1.23;;;13.60;71.10;;;;;;2425925;57;21006;-64
2023/11/04 08:48:13;;;;;;;2.37;1.10;;;13.60;71.10;;;;;;2208424;58;21893;-64
2023/11/04 08:50:40;;;;;;;3.33;0.93;;;13.70;71.10;;;;;;2425350;57;21423;-65
2023/11/04 08:53:06;;;;;;;3.12;1.60;;;13.70;71.80;;;;;;2426408;57;21034;-64
2023/11/04 08:55:33;;;;;;;4.47;2.28;;;13.80;71.10;;;;;;2425346;57;21662;-64
2023/11/04 08:57:59;;;;;;;4.30;2.35;;;13.80;71.00;;;;;;2207878;57;21014;-64
2023/11/04 09:00:25;;;;;;;3.47;1.77;;;13.90;71.10;;;;;;2208266;58;21049;-64
2023/11/04 09:02:52;;;;;;;2.85;1.45;;;13.90;71.00;;;;;;2425629;57;20965;-64
2023/11/04 09:05:18;;;;;;;2.83;1.50;;;13.90;70.90;;;;;;2425708;56;20994;-63
2023/11/04 09:07:45;;;;;;;4.12;1.08;;;14.00;70.90;;;;;;2425261;56;21079;-64
2023/11/04 09:10:12;;;;;;;2.42;1.10;;;14.10;70.90;;;;;;2426787;57;20962;-64
2023/11/04 09:12:41;;;;;;;1.90;0.90;;;14.00;70.80;;;;;;2202571;57;21027;-65
2023/11/04 09:15:10;;;;;;;1.30;0.60;;;14.10;70.80;;;;;;2425812;56;21973;-64
2023/11/04 09:17:38;;;;;;;1.30;0.70;;;14.10;70.70;;;;;;2425157;57;21034;-64
2023/11/04 09:20:08;;;;;;;1.20;0.50;;;14.10;70.70;;;;;;2206122;57;21032;-64
2023/11/04 09:22:35;;;;;;;0.82;0.40;;;14.20;70.40;;;;;;2203219;57;20985;-65
2023/11/04 09:25:01;;;;;;;1.23;0.40;;;14.20;70.60;;;;;;2415502;56;21515;-64
2023/11/04 09:27:30;;;;;;;1.20;0.40;;;14.30;70.70;;;;;;2424606;56;20997;-64
2023/11/04 09:29:58;;;;;;;1.05;0.57;;;14.30;70.50;;;;;;2208373;58;20970;-64
2023/11/04 09:32:24;;;;;;;1.27;0.50;;;14.30;70.40;;;;;;2207924;58;20986;-64
2023/11/04 09:34:51;;;;;;;0.85;0.40;;;14.30;70.50;;;;;;2207424;57;21037;-65
2023/11/04 09:37:17;;;;;;;1.08;0.40;;;14.30;70.30;;;;;;2418444;56;21052;-65
2023/11/04 09:39:43;;;;;;;0.80;0.40;;;14.40;70.40;;;;;;2208004;57;21487;-65
2023/11/04 09:42:11;;;;;;;0.32;0.20;;;14.40;70.30;;;;;;2211361;56;21133;-64
2023/11/04 09:44:37;;;;;;;0.68;0.30;;;14.40;70.10;;;;;;2200201;57;21112;-65
2023/11/04 09:47:04;;;;;;;2.08;0.52;;;14.40;70.00;;;;;;2425657;56;21030;-65
2023/11/04 09:49:30;;;;;;;0.75;0.30;;;14.50;70.00;;;;;;2208160;57;20973;-64
2023/11/04 09:51:57;;;;;;;0.68;0.28;;;14.50;69.90;;;;;;2419224;56;20994;-65
2023/11/04 09:54:23;;;;;;;0.52;0.22;;;14.50;69.90;;;;;;2418647;56;21073;-65
2023/11/04 09:56:51;;;;;;;0.73;0.35;;;14.50;69.90;;;;;;2424869;57;21022;-65
2023/11/04 09:59:17;;;;;;;0.80;0.30;;;14.50;69.90;;;;;;2205554;57;21008;-64
2023/11/04 10:01:44;;;;;;;1.00;0.20;;;14.50;69.90;;;;;;2419736;56;21748;-65
2023/11/04 10:04:10;;;;;;;0.40;0.30;;;14.60;70.00;;;;;;2207565;58;20997;-65
2023/11/04 10:06:37;;;;;;;0.88;0.28;;;14.60;69.90;;;;;;2424857;57;21082;-65
2023/11/04 10:09:05;;;;;;;0.55;0.20;;;14.60;70.00;;;;;;2207758;58;20989;-65
2023/11/04 10:11:32;;;;;;;1.17;0.30;;;14.60;69.90;;;;;;2425577;56;21113;-65
2023/11/04 10:13:59;;;;;;;0.88;0.40;;;14.60;70.00;;;;;;2425958;57;20969;-64
2023/11/04 10:16:29;;;;;;;0.73;0.30;;;14.70;70.10;;;;;;2425914;57;21510;-64
2023/11/04 10:18:55;;;;;;;0.77;0.30;;;14.70;70.10;;;;;;2207760;57;21127;-64
2023/11/04 10:21:21;;;;;;;0.77;0.30;;;14.70;70.20;;;;;;2203312;57;20986;-65
2023/11/04 10:23:48;;;;;;;1.77;0.40;;;14.70;70.20;;;;;;2208522;59;21046;-65
2023/11/04 10:26:17;;;;;;;1.08;0.32;;;14.70;70.10;;;;;;2414175;56;20958;-65
2023/11/04 10:28:44;;;;;;;0.62;0.32;;;14.80;69.80;;;;;;2207691;57;20996;-64
2023/11/04 10:31:11;;;;;;;1.75;0.55;;;14.80;69.90;;;;;;2425550;56;21058;-64
2023/11/04 10:33:37;;;;;;;1.40;0.50;;;14.80;69.90;;;;;;2204403;57;21047;-65
2023/11/04 10:36:04;;;;;;;1.25;0.40;;;14.80;69.80;;;;;;2421901;56;20962;-64
2023/11/04 10:38:42;;;;;;;0.47;0.30;;;14.80;69.70;;;;;;2208127;59;20973;-64
2023/11/04 10:41:08;;;;;;;1.02;0.30;;;14.80;68.70;;;;;;2426166;57;21026;-65
2023/11/04 10:43:39;;;;;;;0.85;0.32;;;14.90;69.80;;;;;;2208551;59;22069;-64
2023/11/04 10:46:10;;;;;;;1.23;0.50;;;14.90;69.80;;;;;;2208342;58;21054;-64
2023/11/04 10:48:49;;;;;;;0.80;0.30;;;14.90;69.90;;;;;;2207916;57;21039;-64
2023/11/04 10:51:37;;;;;;;0.88;0.37;;;14.90;69.60;;;;;;2208412;59;20975;-65
2023/11/04 10:54:16;;;;;;;0.95;0.43;;;15.00;68.40;;;;;;2207317;58;21010;-65
2023/11/04 10:56:44;;;;;;;1.45;0.50;;;15.00;68.60;;;;;;2207905;59;21089;-64
2023/11/04 10:59:35;;;;;;;1.58;0.45;;;15.00;69.50;;;;;;2208764;57;20970;-65
2023/11/04 11:02:01;;;;;;;1.55;0.40;;;15.00;68.90;;;;;;2208421;58;21625;-64
2023/11/04 11:04:27;;;;;;;0.95;0.30;;;15.00;69.50;;;;;;2207632;57;21783;-64
2023/11/04 11:06:55;;;;;;;1.10;0.30;;;15.00;69.40;;;;;;2424149;56;21053;-64
2023/11/04 11:09:21;;;;;;;0.68;0.30;;;15.00;69.30;;;;;;2208201;57;22013;-65
2023/11/04 11:12:06;;;;;;;1.27;0.43;;;14.90;69.00;;;;;;2208110;58;21038;-64
2023/11/04 11:14:33;;;;;;;2.12;0.30;;;14.90;67.70;;;;;;2208165;59;20946;-64
2023/11/04 11:17:03;;;;;;;1.30;0.40;;;14.90;69.00;;;;;;2208071;59;20981;-64
2023/11/04 11:19:33;;;;;;;1.10;0.35;;;14.90;69.20;;;;;;2426411;57;20974;-65
2023/11/04 11:22:02;;;;;;;1.33;0.50;;;14.90;69.10;;;;;;2426006;56;20954;-65
2023/11/04 11:24:30;;;;;;;1.25;0.40;;;14.90;69.30;;;;;;2208563;57;20957;-64
2023/11/04 11:27:02;;;;;;;2.35;0.65;;;14.90;69.20;;;;;;2208373;57;20986;-64
2023/11/04 11:29:29;;;;;;;1.80;0.60;;;14.80;69.10;;;;;;2209191;59;21026;-65
2023/11/04 11:32:05;;;;;;;0.77;0.30;;;14.80;69.40;;;;;;2208299;58;21019;-64
2023/11/04 11:34:32;;;;;;;1.42;0.60;;;14.80;68.90;;;;;;2208066;59;21748;-65
2023/11/04 11:37:01;;;;;;;3.22;1.02;;;14.80;69.70;;;;;;2207018;57;21036;-64
2023/11/04 11:39:27;;;;;;;2.42;1.08;;;14.80;69.40;;;;;;2419433;56;20981;-64
2023/11/04 11:42:02;;;;;;;2.12;1.02;;;14.80;69.70;;;;;;2209056;57;20950;-64
2023/11/04 11:44:29;;;;;;;2.78;1.23;;;14.80;69.40;;;;;;2208682;58;21598;-65
2023/11/04 11:46:55;;;;;;;3.05;1.50;;;14.90;69.80;;;;;;2208274;58;21710;-64
2023/11/04 11:49:21;;;;;;;5.05;2.42;;;14.90;69.80;;;;;;2425363;57;21086;-65
2023/11/04 11:51:48;;;;;;;3.25;1.40;;;14.90;69.80;;;;;;2424964;57;21045;-64
2023/11/04 11:54:15;;;;;;;2.03;0.90;;;14.90;69.70;;;;;;2208302;58;21431;-65
2023/11/04 11:56:42;;;;;;;1.73;0.77;;;14.90;69.60;;;;;;2207467;58;21044;-64
2023/11/04 11:59:09;;;;;;;1.08;0.50;;;14.90;69.60;;;;;;2207303;59;21452;-64
2023/11/04 12:01:36;;;;;;;1.02;0.37;;;14.90;69.70;;;;;;2202561;57;21003;-65
2023/11/04 12:04:05;;;;;;;1.58;0.55;;;14.90;70.00;;;;;;2206059;57;21016;-65
2023/11/04 12:06:32;;;;;;;1.23;0.50;;;14.90;70.10;;;;;;2425916;57;21938;-64
2023/11/04 12:08:58;;;;;;;1.02;0.50;;;14.90;70.20;;;;;;2425086;57;21005;-64
2023/11/04 12:11:28;;;;;;;1.30;0.30;;;15.00;70.30;;;;;;2208896;58;20950;-64
2023/11/04 12:13:55;;;;;;;0.90;0.40;;;15.00;69.90;;;;;;2389598;57;21915;-64
2023/11/04 12:16:24;;;;;;;1.23;0.50;;;15.00;70.10;;;;;;2208649;58;21034;-64
2023/11/04 12:18:50;;;;;;;1.55;0.60;;;15.00;70.10;;;;;;2202600;57;20958;-65
2023/11/04 12:21:16;;;;;;;1.17;0.40;;;15.00;70.00;;;;;;2425589;57;20982;-65
2023/11/04 12:23:43;;;;;;;0.52;0.30;;;15.10;70.00;;;;;;2208189;58;21025;-65
2023/11/04 12:26:10;;;;;;;0.85;0.30;;;15.10;70.00;;;;;;2204954;58;21041;-64
2023/11/04 12:28:41;;;;;;;1.00;0.40;;;15.10;70.00;;;;;;2185544;57;20968;-65
2023/11/04 12:31:08;;;;;;;0.70;0.27;;;15.10;69.70;;;;;;2190055;58;21038;-64
2023/11/04 12:33:35;;;;;;;0.50;0.20;;;15.10;70.00;;;;;;2186798;58;21354;-65
2023/11/04 12:36:04;;;;;;;0.52;0.28;;;15.10;70.00;;;;;;2186022;58;21052;-64
2023/11/04 12:38:39;;;;;;;0.57;0.22;;;15.10;69.90;;;;;;2402573;57;20959;-64
2023/11/04 12:41:09;;;;;;;1.08;0.22;;;15.20;69.70;;;;;;2189639;58;21041;-64
2023/11/04 12:43:37;;;;;;;0.55;0.25;;;15.20;70.00;;;;;;2402575;57;21791;-64
2023/11/04 12:46:04;;;;;;;2.08;0.30;;;15.20;70.00;;;;;;2185435;58;21050;-64
2023/11/04 12:48:31;;;;;;;1.00;0.30;;;15.20;70.00;;;;;;2399788;57;21024;-64